Time;durP1;ratioP1;P1;durP2;ratioP2;P2;SDS_P1;SDS_P2;PMS_P1;PMS_P2;Temp;Humidity;BMP_temperature;BMP_pressure;BME280_temperature;BME280_humidity;BME280_pressure;Samples;Min_cycle;Max_cycle;Signal;HPM_P1;HPM_P2
2021/12/06 00:01:22;;;;;;;0.95;0.88;;;;;;;;;;4975035;28;20031;-96
2021/12/06 00:03:57;;;;;;;1.55;1.15;;;;;;;;;;4951332;28;20031;-96
2021/12/06 00:06:39;;;;;;;;;;;;;;;;;;;;;
2021/12/06 00:09:12;;;;;;;2.53;1.50;;;;;;;;;;4958677;28;20023;-96
2021/12/06 00:11:39;;;;;;;2.47;1.35;;;;;;;;;;4975437;28;20039;-96
2021/12/06 00:14:09;;;;;;;1.50;1.35;;;;;;;;;;4973709;28;20038;-96
2021/12/06 00:16:35;;;;;;;2.60;1.33;;;;;;;;;;4959863;28;20167;-96
2021/12/06 00:19:01;;;;;;;1.50;0.93;;;;;;;;;;4976039;28;20105;-96
2021/12/06 00:21:30;;;;;;;2.10;1.48;;;;;;;;;;4955291;28;20071;-95
2021/12/06 00:23:57;;;;;;;1.95;0.93;;;;;;;;;;4957553;28;20051;-96
2021/12/06 00:26:27;;;;;;;1.05;0.85;;;;;;;;;;4957015;28;20063;-96
2021/12/06 00:28:57;;;;;;;1.55;1.17;;;;;;;;;;4960528;28;20039;-95
2021/12/06 00:31:33;;;;;;;1.02;0.93;;;;;;;;;;4961961;28;20054;-96
2021/12/06 00:34:04;;;;;;;3.38;1.35;;;;;;;;;;4976174;28;20029;-96
2021/12/06 00:36:34;;;;;;;3.72;0.80;;;;;;;;;;4989136;28;20090;-96
2021/12/06 00:39:06;;;;;;;0.85;0.80;;;;;;;;;;4976564;28;20550;-96
2021/12/06 00:41:33;;;;;;;1.50;1.20;;;;;;;;;;4960123;28;20027;-96
2021/12/06 00:44:02;;;;;;;0.93;0.93;;;;;;;;;;4956003;28;20066;-95
2021/12/06 00:46:28;;;;;;;1.60;0.82;;;;;;;;;;4957850;28;20486;-94
2021/12/06 00:48:54;;;;;;;1.35;1.23;;;;;;;;;;4953313;28;20034;-96
2021/12/06 00:51:37;;;;;;;2.47;2.08;;;;;;;;;;4960805;28;20022;-96
2021/12/06 00:54:10;;;;;;;1.95;1.20;;;;;;;;;;4974202;28;20030;-96
2021/12/06 00:56:42;;;;;;;0.70;0.70;;;;;;;;;;4960023;28;20027;-96
2021/12/06 00:59:08;;;;;;;1.20;1.10;;;;;;;;;;4978972;28;20505;-95
2021/12/06 01:01:34;;;;;;;2.25;1.13;;;;;;;;;;4961070;28;20027;-96
2021/12/06 01:04:02;;;;;;;4.05;1.30;;;;;;;;;;4961671;28;20453;-96
2021/12/06 01:06:34;;;;;;;2.65;1.33;;;;;;;;;;4960530;28;20070;-96
2021/12/06 01:09:00;;;;;;;1.45;1.15;;;;;;;;;;4978444;28;20065;-95
2021/12/06 01:11:29;;;;;;;0.50;0.50;;;;;;;;;;4978845;28;20383;-95
2021/12/06 01:13:55;;;;;;;1.60;1.20;;;;;;;;;;4961135;29;20132;-96
2021/12/06 01:16:25;;;;;;;2.45;1.20;;;;;;;;;;4977828;28;20030;-96
2021/12/06 01:18:53;;;;;;;0.80;0.80;;;;;;;;;;4981581;28;20038;-96
2021/12/06 01:21:54;;;;;;;1.55;1.05;;;;;;;;;;4980630;28;20043;-96
2021/12/06 01:24:20;;;;;;;1.37;1.20;;;;;;;;;;4981284;28;20039;-96
2021/12/06 01:32:37;;;;;;;1.27;1.10;;;;;;;;;;4980302;28;20090;-95
2021/12/06 01:40:38;;;;;;;1.05;1.00;;;;;;;;;;4980486;28;20030;-95
2021/12/06 01:43:07;;;;;;;1.70;0.60;;;;;;;;;;4962884;28;20031;-95
2021/12/06 01:45:33;;;;;;;0.80;0.70;;;;;;;;;;4964527;28;20027;-96
2021/12/06 01:48:10;;;;;;;;;;;;;;;;;;;;;
2021/12/06 01:50:40;;;;;;;1.33;1.10;;;;;;;;;;4981113;28;20102;-96
2021/12/06 01:53:07;;;;;;;2.58;1.33;;;;;;;;;;4983025;28;20538;-96
2021/12/06 01:55:39;;;;;;;0.68;0.68;;;;;;;;;;4964823;28;20026;-96
2021/12/06 01:58:08;;;;;;;1.30;1.20;;;;;;;;;;4965280;28;20027;-96
2021/12/06 02:00:43;;;;;;;1.00;0.90;;;;;;;;;;4954921;28;20027;-95
2021/12/06 02:03:09;;;;;;;2.00;1.10;;;;;;;;;;4968279;28;20026;-96
2021/12/06 02:05:37;;;;;;;1.13;1.00;;;;;;;;;;4981312;28;20062;-95
2021/12/06 02:08:03;;;;;;;1.75;1.08;;;;;;;;;;4980560;28;20298;-96
2021/12/06 02:10:29;;;;;;;1.45;1.13;;;;;;;;;;4963144;28;20030;-96
2021/12/06 02:12:56;;;;;;;3.40;1.27;;;;;;;;;;4980163;28;20493;-95
2021/12/06 02:15:45;;;;;;;2.95;0.90;;;;;;;;;;4962779;28;20039;-96
2021/12/06 02:18:29;;;;;;;1.40;1.10;;;;;;;;;;4972302;28;20498;-96
2021/12/06 02:21:03;;;;;;;0.70;0.70;;;;;;;;;;4962047;28;20819;-96
2021/12/06 02:23:29;;;;;;;2.42;0.80;;;;;;;;;;4960099;28;20027;-96
2021/12/06 02:25:56;;;;;;;0.90;0.90;;;;;;;;;;4962837;28;20053;-96
2021/12/06 02:28:22;;;;;;;1.38;1.23;;;;;;;;;;4978434;28;20046;-96
2021/12/06 02:30:49;;;;;;;1.03;0.80;;;;;;;;;;4979052;28;20022;-96
2021/12/06 02:33:15;;;;;;;2.17;1.38;;;;;;;;;;4975482;28;20023;-96
2021/12/06 02:35:41;;;;;;;1.42;1.02;;;;;;;;;;4960307;28;20023;-95
2021/12/06 02:38:08;;;;;;;0.90;0.90;;;;;;;;;;4977594;28;20501;-96
2021/12/06 02:40:36;;;;;;;1.13;1.00;;;;;;;;;;4978219;28;20085;-96
2021/12/06 02:43:03;;;;;;;1.40;1.00;;;;;;;;;;4977600;28;20498;-96
2021/12/06 02:45:30;;;;;;;1.42;1.00;;;;;;;;;;4976407;28;20031;-96
2021/12/06 02:47:57;;;;;;;1.35;0.90;;;;;;;;;;4956345;29;20043;-96
2021/12/06 02:50:25;;;;;;;1.38;1.27;;;;;;;;;;4973755;28;20023;-96
2021/12/06 02:52:51;;;;;;;1.63;1.10;;;;;;;;;;4976139;28;20045;-96
2021/12/06 02:55:36;;;;;;;1.05;0.73;;;;;;;;;;4975561;28;20042;-96
2021/12/06 02:58:14;;;;;;;1.73;1.02;;;;;;;;;;4964753;28;20032;-96
2021/12/06 03:00:41;;;;;;;;;;;6.90;77.80;;;;;;4958921;29;20102;-96
2021/12/06 03:03:07;;;;;;;1.50;1.05;;;;;;;;;;4957224;29;20681;-96
2021/12/06 03:05:33;;;;;;;3.08;1.83;;;;;;;;;;4959718;28;20512;-96
2021/12/06 03:08:00;;;;;;;0.95;0.93;;;;;;;;;;4977184;28;20038;-96
2021/12/06 03:10:27;;;;;;;0.73;0.73;;;;;;;;;;4958410;28;20033;-96
2021/12/06 03:12:53;;;;;;;0.98;0.93;;;;;;;;;;4975618;28;20042;-95
2021/12/06 03:15:19;;;;;;;1.70;1.60;;;;;;;;;;4958218;28;20039;-96
2021/12/06 03:17:57;;;;;;;0.80;0.80;;;;;;;;;;4957640;28;20042;-95
2021/12/06 03:20:29;;;;;;;0.82;0.82;;;;;;;;;;4974261;28;20466;-95
2021/12/06 03:22:55;;;;;;;1.70;1.60;;;;;;;;;;4957337;28;20030;-95
2021/12/06 03:25:27;;;;;;;2.97;1.00;;;;;;;;;;4972166;28;20039;-95
2021/12/06 03:28:16;;;;;;;2.20;1.80;;;;;;;;;;4953649;29;20425;-96
2021/12/06 03:30:59;;;;;;;;;;;;;;;;;;;;;
2021/12/06 03:33:26;;;;;;;2.88;2.17;;;;;;;;;;4973018;28;20042;-94
2021/12/06 03:35:52;;;;;;;1.85;1.70;;;;;;;;;;4956227;28;20027;-94
2021/12/06 03:38:23;;;;;;;2.08;1.80;;;;;;;;;;4973970;28;20045;-95
2021/12/06 03:40:50;;;;;;;4.53;2.35;;;;;;;;;;4973709;28;20019;-96
2021/12/06 03:43:22;;;;;;;1.55;1.17;;;;;;;;;;4975466;28;20114;-96
2021/12/06 03:45:49;;;;;;;1.33;1.15;;;;;;;;;;4975528;28;20022;-96
2021/12/06 03:48:15;;;;;;;4.35;2.90;;;;;;;;;;4958259;28;20138;-96
2021/12/06 03:50:45;;;;;;;4.05;2.58;;;;;;;;;;4974841;28;20046;-96
2021/12/06 03:53:11;;;;;;;2.00;1.73;;;;;;;;;;4975002;28;20027;-94
2021/12/06 03:55:40;;;;;;;3.03;1.73;;;;;;;;;;4940476;28;20027;-95
2021/12/06 03:58:06;;;;;;;2.42;1.75;;;;;;;;;;4961912;28;20031;-95
2021/12/06 04:00:35;;;;;;;0.82;0.70;;;;;;;;;;4956704;28;20035;-95
2021/12/06 04:03:01;;;;;;;1.95;1.30;;;;;;;;;;4973850;28;20030;-95
2021/12/06 04:05:30;;;;;;;0.98;0.82;;;;;;;;;;4955623;28;20117;-95
2021/12/06 04:07:56;;;;;;;2.55;1.00;;;;;;;;;;4949846;28;20046;-95
2021/12/06 04:10:25;;;;;;;2.15;1.30;;;;;;;;;;4941555;28;20568;-95
2021/12/06 04:12:57;;;;;;;1.95;1.10;;;;;;;;;;4954120;28;20054;-95
2021/12/06 04:15:23;;;;;;;2.67;1.67;;;;;;;;;;4939719;29;20110;-96
2021/12/06 04:17:52;;;;;;;5.57;2.63;;;;;;;;;;4953971;28;20151;-96
2021/12/06 04:20:18;;;;;;;7.93;1.77;;;;;;;;;;4954935;29;20034;-94
2021/12/06 04:22:47;;;;;;;4.45;1.92;;;;;;;;;;4973927;28;20031;-95
2021/12/06 04:25:18;;;;;;;7.10;2.42;;;;;;;;;;4973656;28;20034;-95
2021/12/06 04:27:53;;;;;;;8.55;3.47;;;;;;;;;;4956025;28;20082;-96
2021/12/06 04:30:19;;;;;;;4.32;1.95;;;;;;;;;;4966972;28;20039;-96
2021/12/06 04:32:55;;;;;;;3.92;2.45;;;;;;;;;;4953175;29;20039;-95
2021/12/06 04:35:28;;;;;;;6.18;2.80;;;;;;;;;;4953694;28;20031;-94
2021/12/06 04:37:54;;;;;;;7.63;3.58;;;;;;;;;;4969905;28;20046;-95
2021/12/06 04:40:23;;;;;;;1.58;1.15;;;;;;;;;;4956475;28;20029;-95
2021/12/06 04:42:49;;;;;;;2.03;1.45;;;;;;;;;;4969170;28;20067;-95
2021/12/06 04:45:21;;;;;;;1.83;0.77;;;;;;;;;;4973418;28;20039;-95
2021/12/06 04:47:50;;;;;;;1.60;1.13;;;;;;;;;;4956578;28;20043;-95
2021/12/06 04:50:28;;;;;;;2.35;1.33;;;;;;;;;;4942844;28;20568;-94
2021/12/06 04:52:55;;;;;;;2.67;1.23;;;;;;;;;;4973196;28;20069;-96
2021/12/06 04:55:46;;;;;;;4.53;2.47;;;;;;;;;;4965947;28;20038;-96
2021/12/06 04:58:29;;;;;;;4.47;1.63;;;;;;;;;;4959612;28;20055;-96
2021/12/06 05:01:11;;;;;;;5.22;2.33;;;;;;;;;;4972524;28;20549;-95
2021/12/06 05:03:46;;;;;;;3.67;2.03;;;;;;;;;;4976617;28;20576;-96
2021/12/06 05:06:15;;;;;;;2.17;1.55;;;;;;;;;;4976823;28;20158;-95
2021/12/06 05:08:43;;;;;;;2.00;1.10;;;;;;;;;;4957838;28;20612;-95
2021/12/06 05:11:10;;;;;;;0.95;0.70;;;;;;;;;;4975753;28;20027;-93
2021/12/06 05:13:37;;;;;;;1.50;1.38;;;;;;;;;;4976767;28;20035;-95
2021/12/06 05:16:04;;;;;;;1.02;0.90;;;;;;;;;;4959450;28;20513;-95
2021/12/06 05:18:30;;;;;;;3.95;1.65;;;;;;;;;;4955962;28;20130;-94
2021/12/06 05:20:56;;;;;;;1.40;1.25;;;;;;;;;;4976742;28;20030;-95
2021/12/06 05:23:22;;;;;;;2.33;1.83;;;;;;;;;;4959562;28;20035;-95
2021/12/06 05:25:49;;;;;;;2.58;1.65;;;;;;;;;;4956176;28;20031;-94
2021/12/06 05:28:17;;;;;;;3.47;1.42;;;;;;;;;;4959293;28;20215;-94
2021/12/06 05:30:44;;;;;;;;;;;6.30;78.10;;;;;;4973258;28;20047;-94
2021/12/06 05:33:17;;;;;;;2.63;2.33;;;;;;;;;;4972006;28;19910;-95
2021/12/06 05:35:43;;;;;;;1.38;1.13;;;;;;;;;;4959247;28;20042;-95
2021/12/06 05:38:09;;;;;;;1.40;1.30;;;;;;;;;;4976136;28;20027;-96
2021/12/06 05:40:35;;;;;;;2.15;1.27;;;;;;;;;;4958824;28;20038;-94
2021/12/06 05:43:03;;;;;;;1.23;1.13;;;6.40;77.70;;;;;;4976139;28;20025;-92
2021/12/06 05:45:30;;;;;;;1.25;1.08;;;;;;;;;;4958416;28;20046;-94
2021/12/06 05:47:56;;;;;;;0.77;0.68;;;;;;;;;;4956095;28;20049;-93
2021/12/06 05:50:23;;;;;;;2.10;1.77;;;;;;;;;;4958434;28;20030;-94
2021/12/06 05:52:52;;;;;;;1.92;0.93;;;;;;;;;;4939659;29;20445;-93
2021/12/06 05:55:18;;;;;;;1.33;0.85;;;;;;;;;;4971786;28;20050;-94
2021/12/06 05:57:45;;;;;;;2.00;1.63;;;;;;;;;;4957022;28;20030;-93
2021/12/06 06:00:13;;;;;;;1.90;1.33;;;;;;;;;;4975364;28;20035;-94
2021/12/06 06:02:40;;;;;;;1.42;0.80;;;;;;;;;;4973207;28;20034;-93
2021/12/06 06:05:06;;;;;;;2.90;1.33;;;;;;;;;;4958611;28;20117;-92
2021/12/06 06:07:32;;;;;;;5.38;1.85;;;;;;;;;;4972907;28;20035;-94
2021/12/06 06:09:58;;;;;;;3.13;2.30;;;;;;;;;;4945923;28;20028;-93
2021/12/06 06:12:24;;;;;;;2.55;1.80;;;;;;;;;;4956123;28;20081;-94
2021/12/06 06:14:50;;;;;;;4.30;2.30;;;;;;;;;;4956558;29;20062;-94
2021/12/06 06:17:19;;;;;;;1.13;1.02;;;;;;;;;;4975591;28;20038;-95
2021/12/06 06:19:54;;;;;;;3.40;1.90;;;6.40;77.80;;;;;;4975348;28;20038;-94
2021/12/06 06:22:20;;;;;;;1.35;0.95;;;;;;;;;;4955425;28;20042;-94
2021/12/06 06:24:47;;;;;;;1.10;0.95;;;;;;;;;;4973311;28;20025;-96
2021/12/06 06:27:13;;;;;;;1.00;0.88;;;;;;;;;;4972836;28;20051;-94
2021/12/06 06:29:39;;;;;;;1.77;1.50;;;;;;;;;;4968668;28;20019;-93
2021/12/06 06:32:05;;;;;;;1.60;1.02;;;;;;;;;;4960979;28;20050;-92
2021/12/06 06:34:32;;;;;;;0.90;0.90;;;;;;;;;;4968637;28;20110;-92
2021/12/06 06:36:58;;;;;;;1.25;1.15;;;;;;;;;;4967334;28;20505;-93
2021/12/06 06:39:24;;;;;;;0.80;0.70;;;;;;;;;;4975368;28;20031;-96
2021/12/06 06:45:01;;;;;;;1.83;1.58;;;;;;;;;;4953218;28;20462;-94
2021/12/06 06:47:37;;;;;;;6.95;2.85;;;;;;;;;;4973986;28;20038;-93
2021/12/06 06:50:07;;;;;;;2.95;1.42;;;;;;;;;;4965836;28;20106;-94
2021/12/06 06:52:42;;;;;;;1.83;0.98;;;;;;;;;;4955743;28;20034;-95
2021/12/06 06:55:10;;;;;;;1.10;1.00;;;;;;;;;;4971831;28;20122;-94
2021/12/06 06:57:37;;;;;;;1.13;1.02;;;;;;;;;;4971113;28;20073;-95
2021/12/06 07:00:05;;;;;;;3.80;2.70;;;;;;;;;;4970766;28;20025;-95
2021/12/06 07:02:32;;;;;;;6.45;1.98;;;;;;;;;;4976090;28;20054;-96
2021/12/06 07:04:58;;;;;;;5.05;1.88;;;;;;;;;;4954408;28;20034;-95
2021/12/06 07:07:23;;;;;;;6.70;2.25;;;;;;;;;;4966326;28;20486;-94
2021/12/06 07:09:50;;;;;;;1.20;1.10;;;;;;;;;;4953523;29;20082;-95
2021/12/06 07:12:18;;;;;;;2.45;1.02;;;;;;;;;;4958266;28;20549;-95
2021/12/06 07:14:45;;;;;;;1.60;1.50;;;;;;;;;;4939984;28;20058;-96
2021/12/06 07:17:11;;;;;;;2.95;2.05;;;;;;;;;;4954908;29;20114;-96
2021/12/06 07:19:45;;;;;;;3.40;1.65;;;;;;;;;;4950527;29;20031;-94
2021/12/06 07:22:14;;;;;;;2.65;1.80;;;;;;;;;;4959214;28;20672;-96
2021/12/06 07:24:40;;;;;;;1.15;1.02;;;;;;;;;;4959633;28;20054;-94
2021/12/06 07:27:09;;;;;;;2.35;1.08;;;;;;;;;;4955149;28;20067;-94
2021/12/06 07:29:36;;;;;;;1.52;1.10;;;;;;;;;;4955641;28;20034;-94
2021/12/06 07:32:06;;;;;;;1.77;1.10;;;;;;;;;;4967391;28;20033;-95
2021/12/06 07:34:32;;;;;;;3.08;1.42;;;;;;;;;;4956135;28;20051;-95
2021/12/06 07:36:58;;;;;;;1.35;1.00;;;;;;;;;;4967186;28;20023;-91
2021/12/06 07:39:32;;;;;;;2.53;1.70;;;;;;;;;;4972932;28;20082;-95
2021/12/06 07:41:58;;;;;;;2.15;1.73;;;;;;;;;;4967963;28;20023;-95
2021/12/06 07:44:24;;;;;;;8.82;3.13;;;;;;;;;;4970909;28;20058;-93
2021/12/06 07:46:52;;;;;;;11.40;6.78;;;;;;;;;;4968906;28;20034;-93
2021/12/06 07:49:18;;;;;;;6.80;4.10;;;;;;;;;;4951927;28;20042;-96
2021/12/06 07:51:54;;;;;;;4.85;3.63;;;;;;;;;;4955762;28;20066;-96
2021/12/06 07:54:20;;;;;;;4.03;2.95;;;;;;;;;;4969336;28;20035;-96
2021/12/06 07:56:46;;;;;;;9.07;4.00;;;;;;;;;;4960856;28;20042;-96
2021/12/06 07:59:21;;;;;;;7.45;3.53;;;;;;;;;;4958544;28;20087;-96
2021/12/06 08:02:33;;;;;;;5.05;3.22;;;;;;;;;;4979168;28;20022;-96
2021/12/06 08:04:38;;;;;;;4.05;2.70;;;;;;;;;;4963661;28;20465;-94
2021/12/06 08:07:14;;;;;;;5.50;2.55;;;;;;;;;;4968349;28;20031;-96
2021/12/06 08:09:51;;;;;;;3.97;2.85;;;;;;;;;;4966070;28;20031;-95
2021/12/06 08:12:36;;;;;;;;;;;;;;;;;;;;;
2021/12/06 08:15:22;;;;;;;4.70;2.65;;;;;;;;;;4968831;28;20490;-95
2021/12/06 08:17:48;;;;;;;2.50;2.17;;;;;;;;;;4970426;28;20486;-94
2021/12/06 08:20:18;;;;;;;4.20;2.63;;;;;;;;;;4971927;28;20054;-95
2021/12/06 08:22:55;;;;;;;4.00;2.70;;;;;;;;;;4974803;28;20034;-94
2021/12/06 08:25:32;;;;;;;9.00;4.25;;;;;;;;;;4974206;28;20023;-95
2021/12/06 08:28:08;;;;;;;;;;;;;;;;;;;;;
2021/12/06 08:30:40;;;;;;;7.18;4.20;;;;;;;;;;4969319;28;20532;-95
2021/12/06 08:33:24;;;;;;;6.85;4.03;;;;;;;;;;4975153;28;20121;-96
2021/12/06 08:36:09;;;;;;;6.45;3.97;;;;;;;;;;4973401;28;20015;-94
2021/12/06 08:38:35;;;;;;;6.97;2.83;;;;;;;;;;4972504;28;20038;-94
2021/12/06 08:41:03;;;;;;;7.03;3.03;;;;;;;;;;4975662;28;20025;-93
2021/12/06 08:43:29;;;;;;;;;;;;;;;;;;4983053;28;20030;-96
2021/12/06 08:46:25;;;;;;;5.97;2.17;;;;;;;;;;4974019;28;19960;-95
2021/12/06 08:49:04;;;;;;;;;;;;;;;;;;;;;
2021/12/06 08:51:55;;;;;;;2.35;1.63;;;;;;;;;;4870001;29;20053;-96
2021/12/06 08:57:42;;;;;;;3.83;2.40;;;;;;;;;;4855396;29;20056;-96
2021/12/06 09:03:22;;;;;;;5.03;3.65;;;;;;;;;;4881970;29;20036;-96
2021/12/06 09:05:48;;;;;;;;;;;;;;;;;;4871765;29;20036;-91
2021/12/06 09:11:21;;;;;;;14.23;7.65;;;;;;;;;;4973528;28;20058;-94
2021/12/06 09:22:02;;;;;;;7.85;4.97;;;;;;;;;;5145916;23;20713;-86
2021/12/06 09:24:28;;;;;;;7.07;4.07;;;;;;;;;;4942198;28;20041;-85
2021/12/06 09:26:54;;;;;;;20.05;6.20;;;;;;;;;;4964481;28;20042;-84
2021/12/06 09:29:24;;;;;;;16.42;6.47;;;;;;;;;;4947452;28;20872;-83
2021/12/06 09:31:50;;;;;;;15.18;7.10;;;;;;;;;;4961491;28;20026;-82
2021/12/06 09:34:16;;;;;;;14.25;5.65;;;;;;;;;;4966128;28;20070;-85
2021/12/06 09:36:42;;;;;;;7.93;4.30;;;;;;;;;;4965586;28;20062;-86
2021/12/06 09:39:08;;;;;;;14.80;5.68;;;;;;;;;;4948256;28;20057;-88
2021/12/06 09:41:34;;;;;;;10.95;5.38;;;;;;;;;;4967607;28;20567;-85
2021/12/06 10:40:46;;;;;;;32.88;18.10;;;;;;;;;;6255085;22;19938;-96
2021/12/06 10:43:16;;;;;;;20.13;8.82;;;;;;;;;;6290573;22;20457;-96
2021/12/06 10:45:47;;;;;;;18.40;8.63;;;;;;;;;;6281911;22;20004;-93
2021/12/06 10:51:30;;;;;;;9.48;4.60;;;;;;;;;;6159130;23;20017;-94
2021/12/06 10:54:09;;;;;;;7.18;3.30;;;;;;;;;;6178307;22;20052;-94
2021/12/06 10:57:03;;;;;;;6.55;3.20;;;;;;;;;;6251533;23;20016;-91
2021/12/06 10:59:41;;;;;;;5.18;2.88;;;;;;;;;;6236734;22;20031;-94
2021/12/06 11:02:09;;;;;;;10.55;4.85;;;;;;;;;;6280605;22;20004;-94
2021/12/06 11:10:10;;;;;;;4.28;2.88;;;;;;;;;;6228973;22;20032;-95
2021/12/06 11:13:45;;;;;;;7.05;2.97;;;;;;;;;;6275361;22;20015;-94
2021/12/06 11:18:56;;;;;;;6.20;3.80;;;;;;;;;;6268427;22;20105;-95
2021/12/06 11:21:34;;;;;;;10.55;5.72;;;;;;;;;;6276425;22;20010;-95
2021/12/06 11:24:15;;;;;;;8.77;4.78;;;;;;;;;;6275920;22;20007;-95
2021/12/06 11:27:25;;;;;;;10.35;4.68;;;;;;;;;;6275744;22;20007;-96
2021/12/06 11:30:42;;;;;;;;;;;;;;;;;;;;;
2021/12/06 11:33:26;;;;;;;9.82;5.10;;;;;;;;;;6264263;22;20095;-94
2021/12/06 11:39:49;;;;;;;;;;;;;;;;;;;;;
2021/12/06 11:42:18;;;;;;;7.93;4.28;;;;;;;;;;6118103;23;20085;-95
2021/12/06 11:44:58;;;;;;;9.57;4.32;;;;;;;;;;6120990;23;20033;-93
2021/12/06 11:47:24;;;;;;;10.80;3.60;;;;;;;;;;6119738;23;20006;-96
2021/12/06 11:50:02;;;;;;;8.00;3.33;;;;;;;;;;6121789;23;20014;-94
2021/12/06 11:52:33;;;;;;;7.35;4.55;;;;;;;;;;6120455;23;20014;-95
2021/12/06 11:58:51;;;;;;;15.18;7.30;;;;;;;;;;6080634;23;20014;-95
2021/12/06 12:11:42;;;;;;;10.13;2.90;;;;;;;;;;5982043;24;20027;-96
2021/12/06 12:22:43;;;;;;;15.63;4.78;;;;;;;;;;6269314;22;20024;-96
2021/12/06 13:48:47;;;;;;;11.30;5.13;;;;;;;;;;5978108;24;20467;-96
2021/12/06 13:55:03;;;;;;;;;;;;;;;;;;;;;
2021/12/06 14:01:29;;;;;;;5.43;3.03;;;;;;;;;;5996074;23;20039;-95
2021/12/06 14:03:44;;;;;;;6.68;3.97;;;;;;;;;;6063847;23;20011;-96
2021/12/06 14:24:35;;;;;;;5.60;3.75;;;;;;;;;;6286449;22;20697;-96
2021/12/06 14:27:21;;;;;;;11.13;4.80;;;;;;;;;;6262794;22;20008;-95
2021/12/06 14:29:57;;;;;;;9.03;5.03;;;;;;;;;;6259516;22;20008;-94
2021/12/06 14:32:26;;;;;;;10.68;6.47;;;;;;;;;;6272227;22;20316;-92
2021/12/06 14:35:04;;;;;;;10.43;5.63;;;;;;;;;;6246595;22;20004;-91
2021/12/06 14:37:30;;;;;;;11.02;3.70;;;;;;;;;;6273951;22;20377;-93
2021/12/06 14:39:57;;;;;;;7.13;4.07;;;;;;;;;;6274372;22;20007;-93
2021/12/06 14:42:24;;;;;;;8.98;3.45;;;;;;;;;;6246498;22;20372;-93
2021/12/06 14:44:58;;;;;;;5.20;3.13;;;;;;;;;;6249171;22;20011;-95
2021/12/06 14:47:24;;;;;;;8.63;5.03;;;;;;;;;;6248368;22;20102;-95
2021/12/06 14:49:50;;;;;;;9.27;4.95;;;;;;;;;;6247246;22;20012;-93
2021/12/06 14:52:25;;;;;;;9.65;3.85;;;;;;;;;;6274279;22;20019;-94
2021/12/06 14:54:55;;;;;;;7.20;4.28;;;;;;;;;;6274853;22;20004;-94
2021/12/06 14:57:32;;;;;;;12.57;4.47;;;;;;;;;;6274194;22;20012;-93
2021/12/06 15:00:28;;;;;;;11.68;6.30;;;7.10;80.20;;;;;;6273669;22;20004;-94
2021/12/06 15:03:05;;;;;;;12.25;4.57;;;;;;;;;;6275208;22;20004;-94
2021/12/06 15:05:34;;;;;;;8.10;4.68;;;;;;;;;;6274153;22;20080;-92
2021/12/06 15:08:22;;;;;;;11.35;6.25;;;;;;;;;;6245542;22;20087;-91
2021/12/06 15:11:07;;;;;;;8.43;5.03;;;;;;;;;;6274365;22;20012;-92
2021/12/06 15:13:33;;;;;;;12.15;6.70;;;;;;;;;;6248331;22;20008;-92
2021/12/06 15:16:01;;;;;;;14.10;6.90;;;;;;;;;;6276447;22;19996;-92
2021/12/06 15:18:29;;;;;;;8.68;4.40;;;;;;;;;;6246517;22;20273;-94
2021/12/06 15:20:56;;;;;;;8.05;4.38;;;;;;;;;;6277672;22;20061;-91
2021/12/06 15:23:27;;;;;;;12.38;4.40;;;;;;;;;;6249894;22;20019;-92
2021/12/06 15:25:55;;;;;;;11.70;5.20;;;;;;;;;;6249098;22;20061;-93
2021/12/06 15:28:25;;;;;;;15.55;5.68;;;;;;;;;;6245927;22;20098;-93
2021/12/06 15:30:52;;;;;;;15.95;7.00;;;;;;;;;;6246120;22;20035;-95
2021/12/06 15:33:18;;;;;;;18.53;6.57;;;;;;;;;;6275290;22;20011;-94
2021/12/06 15:35:49;;;;;;;34.85;9.73;;;;;;;;;;6249543;22;20057;-92
2021/12/06 15:38:20;;;;;;;14.30;7.03;;;;;;;;;;6246608;22;20430;-93
2021/12/06 15:40:48;;;;;;;10.88;4.47;;;;;;;;;;6274709;22;20090;-92
2021/12/06 15:43:17;;;;;;;14.00;4.70;;;;;;;;;;6248323;22;20008;-91
2021/12/06 15:45:43;;;;;;;12.98;5.72;;;;;;;;;;6274451;22;20003;-91
2021/12/06 15:48:10;;;;;;;10.07;5.00;;;;;;;;;;6272272;22;20346;-91
2021/12/06 15:50:37;;;;;;;9.23;4.85;;;;;;;;;;6264604;22;20111;-92
2021/12/06 15:53:03;;;;;;;15.03;5.50;;;;;;;;;;6247400;22;20011;-91
2021/12/06 15:55:33;;;;;;;21.65;5.85;;;;;;;;;;6274206;22;20226;-90
2021/12/06 15:58:02;;;;;;;27.48;9.77;;;;;;;;;;6270989;22;20008;-91
2021/12/06 16:00:38;;;;;;;15.18;7.32;;;;;;;;;;6248021;22;20004;-93
2021/12/06 16:03:05;;;;;;;8.85;5.15;;;;;;;;;;6274173;22;20078;-93
2021/12/06 16:05:33;;;;;;;7.43;4.13;;;;;;;;;;6248204;22;20010;-93
2021/12/06 16:08:08;;;;;;;9.30;4.35;;;;;;;;;;6272803;22;20460;-92
2021/12/06 16:10:36;;;;;;;10.82;4.85;;;;;;;;;;6273657;22;20019;-91
2021/12/06 16:13:07;;;;;;;15.13;5.10;;;;;;;;;;6273626;22;20082;-90
2021/12/06 16:15:34;;;;;;;11.43;4.82;;;;;;;;;;6246867;22;20003;-90
2021/12/06 16:18:05;;;;;;;7.17;4.23;;;;;;;;;;6271777;22;20008;-92
2021/12/06 16:20:32;;;;;;;11.02;6.97;;;;;;;;;;6247736;22;20713;-92
2021/12/06 16:22:58;;;;;;;22.45;11.30;;;;;;;;;;6249562;22;20027;-92
2021/12/06 16:25:25;;;;;;;26.42;9.40;;;;;;;;;;6248254;22;20011;-93
2021/12/06 16:27:58;;;;;;;36.28;16.92;;;;;;;;;;6271954;22;20038;-94
2021/12/06 16:30:24;;;;;;;27.05;9.45;;;;;;;;;;6262525;22;20587;-91
2021/12/06 16:32:50;;;;;;;8.82;4.28;;;;;;;;;;6183237;23;20451;-90
2021/12/06 16:35:17;;;;;;;9.68;4.28;;;;;;;;;;6183024;23;20005;-89
2021/12/06 16:37:43;;;;;;;9.30;5.85;;;;;;;;;;6182348;23;20009;-93
2021/12/06 16:40:09;;;;;;;7.57;3.28;;;;;;;;;;6159172;23;20025;-94
2021/12/06 16:42:41;;;;;;;5.95;3.22;;;;;;;;;;6161704;23;20008;-93
2021/12/06 16:45:07;;;;;;;12.18;4.07;;;;;;;;;;6184149;23;20009;-92
2021/12/06 16:47:37;;;;;;;6.57;5.65;;;;;;;;;;6155466;23;20108;-91
2021/12/06 16:50:03;;;;;;;18.13;3.70;;;;;;;;;;6180927;23;20005;-93
2021/12/06 16:52:32;;;;;;;4.97;4.03;;;;;;;;;;6182564;23;20020;-92
2021/12/06 16:55:05;;;;;;;7.80;3.13;;;;;;;;;;6183772;23;20005;-93
2021/12/06 16:57:38;;;;;;;7.05;4.00;;;;;;;;;;6182210;23;20020;-93
2021/12/06 17:00:10;;;;;;;5.53;2.45;;;;;;;;;;6182140;23;20005;-92
2021/12/06 17:02:37;;;;;;;4.80;4.22;;;;;;;;;;6156490;23;20005;-95
2021/12/06 17:05:04;;;;;;;14.85;5.72;;;;;;;;;;6159304;23;20005;-94
2021/12/06 17:07:33;;;;;;;11.57;6.65;;;;;;;;;;6155178;23;20005;-93
2021/12/06 17:10:01;;;;;;;11.27;4.75;;;;;;;;;;6183109;23;20025;-94
2021/12/06 17:12:30;;;;;;;;;;;;;;;;;;6158159;23;20048;-93
2021/12/06 17:15:12;;;;;;;18.70;7.40;;;;;;;;;;6183804;23;19979;-92
2021/12/06 17:17:48;;;;;;;13.23;5.57;;;;;;;;;;6154663;23;20083;-92
2021/12/06 17:20:18;;;;;;;13.77;5.63;;;;;;;;;;6181446;23;20019;-93
2021/12/06 17:25:44;;;;;;;26.10;8.70;;;;;;;;;;6163343;23;20001;-93
2021/12/06 17:28:30;;;;;;;16.83;8.65;;;;;;;;;;6153986;23;20383;-94
2021/12/06 17:31:25;;;;;;;21.30;9.53;;;;;;;;;;6184772;23;20013;-93
2021/12/06 17:37:12;;;;;;;21.80;11.07;;;;;;;;;;6004614;23;20039;-93
2021/12/06 17:39:53;;;;;;;21.08;10.57;;;;;;;;;;6002753;23;20012;-93
2021/12/06 17:42:22;;;;;;;15.05;7.03;;;;;;;;;;5978464;24;20012;-92
2021/12/06 17:44:51;;;;;;;13.77;6.78;;;;;;;;;;5978550;24;20517;-93
2021/12/06 17:47:43;;;;;;;18.10;8.23;;;;;;;;;;5975816;24;20008;-94
2021/12/06 17:50:11;;;;;;;11.10;5.65;;;;;;;;;;5973114;24;20447;-94
2021/12/06 17:52:47;;;;;;;10.80;4.78;;;;;;;;;;5978589;24;20020;-92
2021/12/06 17:55:22;;;;;;;16.88;5.63;;;;;;;;;;5978038;24;20016;-93
2021/12/06 17:57:52;;;;;;;12.90;6.35;;;;;;;;;;5976445;24;20012;-92
2021/12/06 18:00:28;;;;;;;7.55;3.20;;;;;;;;;;5978767;24;20011;-91
2021/12/06 18:03:30;;;;;;;;;;;;;;;;;;;;;
2021/12/06 18:06:09;;;;;;;11.43;7.45;;;;;;;;;;5978977;24;20103;-92
2021/12/06 18:08:35;;;;;;;17.70;8.48;;;;;;;;;;6059624;23;20011;-94
2021/12/06 18:11:31;;;;;;;19.13;7.88;;;;;;;;;;6122168;23;20041;-93
2021/12/06 18:14:02;;;;;;;14.50;7.30;;;;;;;;;;6040068;23;20013;-93
2021/12/06 18:16:48;;;;;;;14.68;7.65;;;;;;;;;;6065409;23;20011;-92
2021/12/06 18:22:17;;;;;;;13.93;7.05;;;;;;;;;;6008283;23;20012;-94
2021/12/06 18:24:52;;;;;;;18.95;8.65;;;;;;;;;;5984526;23;20004;-92
2021/12/06 18:27:22;;;;;;;17.10;6.97;;;;;;;;;;6007156;23;20019;-94
2021/12/06 18:29:54;;;;;;;14.65;8.48;;;;;;;;;;6007105;23;20008;-92
2021/12/06 18:32:26;;;;;;;18.83;9.82;;;;;;;;;;6007976;23;20016;-94
2021/12/06 18:34:53;;;;;;;16.38;8.07;;;;;;;;;;5984900;23;20003;-93
2021/12/06 18:37:28;;;;;;;21.02;8.18;;;;;;;;;;6007031;23;20035;-95
2021/12/06 18:40:00;;;;;;;21.48;7.72;;;;;;;;;;6005149;23;20478;-94
2021/12/06 18:42:29;;;;;;;17.23;7.03;;;;;;;;;;6009342;23;20007;-92
2021/12/06 18:44:56;;;;;;;12.75;6.95;;;;;;;;;;6008252;23;20016;-93
2021/12/06 18:47:30;;;;;;;15.95;5.63;;;;;;;;;;5982077;23;20007;-92
2021/12/06 18:49:56;;;;;;;20.52;6.72;;;;;;;;;;6010794;23;20014;-92
2021/12/06 18:52:23;;;;;;;10.65;5.45;;;;;;;;;;6011333;23;20043;-92
2021/12/06 18:54:49;;;;;;;11.52;4.85;;;;;;;;;;6035746;23;20015;-94
2021/12/06 18:57:19;;;;;;;10.30;4.65;;;;;;;;;;6009433;23;20155;-92
2021/12/06 18:59:48;;;;;;;8.50;5.20;;;;;;;;;;6143701;23;20008;-93
2021/12/06 19:02:15;;;;;;;8.55;4.22;;;;;;;;;;6153052;23;20017;-92
2021/12/06 19:04:41;;;;;;;8.25;4.32;;;;;;;;;;6154000;23;20001;-92
2021/12/06 19:07:08;;;;;;;8.30;4.97;;;;;;;;;;6153866;23;20029;-94
2021/12/06 19:09:36;;;;;;;12.10;4.40;;;;;;;;;;6151343;23;20033;-93
2021/12/06 19:12:02;;;;;;;13.80;5.15;;;;;;;;;;6154414;23;20021;-93
2021/12/06 19:14:31;;;;;;;13.63;5.15;;;;;;;;;;6153169;23;20009;-92
2021/12/06 19:17:04;;;;;;;10.60;6.05;;;;;;;;;;6154100;23;20009;-93